GLO1785 SBRB-SBEG
Flight info
| Callsign | GLO1785 |
|---|---|
| Flight time | 1h 38m |
| Altitude | 37000 |
| Route | PUNPA DCT MASON UZ62 ILKOD |
| Aircraft | B738/M-SDFGIKLORWXY/LB1 |
Departure
| Time | 2026-04-20 23:49 |
|---|---|
| Airport | Rio Branco-Plácido de Castro International Airport (SBRB) |
Arrival
| Time | 2026-04-21 01:28 |
|---|---|
| Airport | Eduardo Gomes International Airport (SBEG) |
| Time | Latitude | Longitude | Altitude | Speed | Heading |
|---|---|---|---|---|---|
| 2026-04-20 23:47 | -9.86507 | -67.88772 | 615 ft | 24 kts | 57° |
| 2026-04-20 23:48 | -9.86414 | -67.88646 | 604 ft | 17 kts | 32° |
| 2026-04-20 23:48 | -9.86377 | -67.88600 | 605 ft | 8 kts | 143° |
| 2026-04-20 23:48 | -9.86409 | -67.88616 | 604 ft | 0 kts | 240° |
| 2026-04-20 23:48 | -9.86411 | -67.88619 | 604 ft | 5 kts | 240° |
| 2026-04-20 23:49 | -9.86568 | -67.88866 | 613 ft | 80 kts | 237° |
| 2026-04-20 23:49 | -9.87002 | -67.89545 | 637 ft | 149 kts | 237° |
| 2026-04-20 23:49 | -9.87674 | -67.90555 | 1016 ft | 181 kts | 235° |
| 2026-04-20 23:49 | -9.88413 | -67.91581 | 2023 ft | 181 kts | 228° |
| 2026-04-20 23:50 | -9.89569 | -67.92185 | 2697 ft | 203 kts | 186° |
| 2026-04-20 23:50 | -9.91004 | -67.91843 | 3041 ft | 228 kts | 147° |
| 2026-04-20 23:50 | -9.92057 | -67.90587 | 3319 ft | 250 kts | 112° |
| 2026-04-20 23:50 | -9.92322 | -67.88824 | 3919 ft | 258 kts | 79° |
| 2026-04-20 23:51 | -9.91590 | -67.87173 | 4687 ft | 263 kts | 46° |
| 2026-04-20 23:51 | -9.90069 | -67.86042 | 5084 ft | 279 kts | 25° |
| 2026-04-20 23:51 | -9.88472 | -67.84970 | 6205 ft | 271 kts | 37° |
| 2026-04-20 23:51 | -9.87020 | -67.83797 | 7204 ft | 264 kts | 36° |
| 2026-04-20 23:52 | -9.85547 | -67.82670 | 8030 ft | 266 kts | 34° |
| 2026-04-20 23:52 | -9.84044 | -67.81549 | 8793 ft | 270 kts | 34° |
| 2026-04-20 23:52 | -9.82521 | -67.80425 | 9579 ft | 273 kts | 34° |
| 2026-04-20 23:52 | -9.80974 | -67.79290 | 10307 ft | 276 kts | 34° |
| 2026-04-20 23:53 | -9.79414 | -67.78148 | 11035 ft | 278 kts | 34° |
| 2026-04-20 23:53 | -9.77831 | -67.76993 | 11741 ft | 281 kts | 34° |
| 2026-04-20 23:53 | -9.76257 | -67.75844 | 12439 ft | 284 kts | 35° |
| 2026-04-20 23:53 | -9.74643 | -67.74661 | 13136 ft | 288 kts | 36° |
| 2026-04-20 23:54 | -9.73074 | -67.73296 | 13402 ft | 309 kts | 44° |
| 2026-04-20 23:54 | -9.71581 | -67.71619 | 13584 ft | 331 kts | 49° |
| 2026-04-20 23:54 | -9.70057 | -67.69771 | 13742 ft | 352 kts | 50° |
| 2026-04-20 23:54 | -9.68456 | -67.67804 | 13929 ft | 369 kts | 50° |
| 2026-04-20 23:55 | -9.66810 | -67.65779 | 14360 ft | 376 kts | 50° |
| 2026-04-20 23:55 | -9.65137 | -67.63728 | 14921 ft | 378 kts | 50° |
| 2026-04-20 23:55 | -9.63457 | -67.61674 | 15515 ft | 380 kts | 50° |
| 2026-04-20 23:55 | -9.61762 | -67.59606 | 16073 ft | 383 kts | 50° |
| 2026-04-20 23:56 | -9.60048 | -67.57520 | 16613 ft | 386 kts | 50° |
| 2026-04-20 23:56 | -9.58321 | -67.55420 | 17145 ft | 389 kts | 50° |
| 2026-04-20 23:56 | -9.56584 | -67.53308 | 17670 ft | 392 kts | 50° |
| 2026-04-20 23:56 | -9.54830 | -67.51176 | 18171 ft | 395 kts | 50° |
| 2026-04-20 23:57 | -9.53064 | -67.49030 | 18608 ft | 398 kts | 50° |
| 2026-04-20 23:57 | -9.51308 | -67.46896 | 19065 ft | 400 kts | 50° |
| 2026-04-20 23:57 | -9.49519 | -67.44723 | 19529 ft | 402 kts | 50° |
| 2026-04-20 23:57 | -9.47723 | -67.42541 | 19975 ft | 404 kts | 50° |
| 2026-04-20 23:58 | -9.45920 | -67.40351 | 20415 ft | 406 kts | 50° |
| 2026-04-20 23:58 | -9.44103 | -67.38145 | 20839 ft | 408 kts | 50° |
| 2026-04-20 23:58 | -9.42281 | -67.35933 | 21265 ft | 410 kts | 50° |
| 2026-04-20 23:58 | -9.40431 | -67.33720 | 21683 ft | 413 kts | 49° |
| 2026-04-20 23:59 | -9.38539 | -67.31521 | 22080 ft | 415 kts | 49° |
| 2026-04-20 23:59 | -9.36624 | -67.29323 | 22480 ft | 417 kts | 49° |
| 2026-04-20 23:59 | -9.34695 | -67.27116 | 22871 ft | 419 kts | 49° |
| 2026-04-20 23:59 | -9.32757 | -67.24897 | 23252 ft | 421 kts | 49° |
| 2026-04-21 00:00 | -9.30812 | -67.22665 | 23598 ft | 424 kts | 49° |
| 2026-04-21 00:00 | -9.28858 | -67.20418 | 23920 ft | 425 kts | 49° |
| 2026-04-21 00:00 | -9.26927 | -67.18196 | 24244 ft | 426 kts | 49° |
| 2026-04-21 00:00 | -9.24968 | -67.15939 | 24554 ft | 428 kts | 49° |
| 2026-04-21 00:01 | -9.23000 | -67.13671 | 24842 ft | 430 kts | 49° |
| 2026-04-21 00:01 | -9.21019 | -67.11388 | 25123 ft | 432 kts | 49° |
| 2026-04-21 00:01 | -9.19034 | -67.09101 | 25406 ft | 434 kts | 49° |
| 2026-04-21 00:01 | -9.17039 | -67.06802 | 25702 ft | 435 kts | 49° |
| 2026-04-21 00:02 | -9.15036 | -67.04495 | 25990 ft | 437 kts | 49° |
| 2026-04-21 00:02 | -9.13026 | -67.02180 | 26269 ft | 439 kts | 49° |
| 2026-04-21 00:02 | -9.11007 | -66.99855 | 26542 ft | 441 kts | 49° |
| 2026-04-21 00:02 | -9.08979 | -66.97521 | 26812 ft | 442 kts | 49° |
| 2026-04-21 00:03 | -9.06941 | -66.95175 | 27075 ft | 444 kts | 49° |
| 2026-04-21 00:03 | -9.04900 | -66.92826 | 27344 ft | 446 kts | 50° |
| 2026-04-21 00:03 | -9.02847 | -66.90465 | 27600 ft | 447 kts | 50° |
| 2026-04-21 00:03 | -9.00788 | -66.88096 | 27847 ft | 449 kts | 50° |
| 2026-04-21 00:04 | -8.98724 | -66.85722 | 28110 ft | 450 kts | 50° |
| 2026-04-21 00:04 | -8.96650 | -66.83338 | 28362 ft | 452 kts | 50° |
| 2026-04-21 00:04 | -8.94573 | -66.80949 | 28582 ft | 454 kts | 50° |
| 2026-04-21 00:04 | -8.92482 | -66.78547 | 28812 ft | 455 kts | 50° |
| 2026-04-21 00:05 | -8.90389 | -66.76141 | 29040 ft | 457 kts | 50° |
| 2026-04-21 00:05 | -8.88285 | -66.73724 | 29263 ft | 458 kts | 50° |
| 2026-04-21 00:05 | -8.86200 | -66.71328 | 29483 ft | 460 kts | 50° |
| 2026-04-21 00:05 | -8.84081 | -66.68894 | 29697 ft | 461 kts | 50° |
| 2026-04-21 00:06 | -8.81956 | -66.66454 | 29909 ft | 463 kts | 50° |
| 2026-04-21 00:06 | -8.79827 | -66.64010 | 30141 ft | 463 kts | 50° |
| 2026-04-21 00:06 | -8.77704 | -66.61574 | 30447 ft | 461 kts | 50° |
| 2026-04-21 00:06 | -8.75584 | -66.59142 | 30792 ft | 458 kts | 50° |
| 2026-04-21 00:07 | -8.73485 | -66.56733 | 31125 ft | 456 kts | 50° |
| 2026-04-21 00:07 | -8.71393 | -66.54334 | 31416 ft | 455 kts | 50° |
| 2026-04-21 00:07 | -8.69297 | -66.51929 | 31707 ft | 454 kts | 50° |
| 2026-04-21 00:07 | -8.67243 | -66.49574 | 31995 ft | 453 kts | 50° |
| 2026-04-21 00:08 | -8.65164 | -66.47190 | 32313 ft | 451 kts | 50° |
| 2026-04-21 00:08 | -8.63094 | -66.44816 | 32639 ft | 449 kts | 50° |
| 2026-04-21 00:08 | -8.61027 | -66.42448 | 32967 ft | 448 kts | 50° |
| 2026-04-21 00:08 | -8.58973 | -66.40093 | 33285 ft | 446 kts | 50° |
| 2026-04-21 00:09 | -8.56922 | -66.37744 | 33619 ft | 445 kts | 50° |
| 2026-04-21 00:09 | -8.54877 | -66.35401 | 33954 ft | 443 kts | 50° |
| 2026-04-21 00:09 | -8.52843 | -66.33071 | 34232 ft | 442 kts | 50° |
| 2026-04-21 00:09 | -8.50810 | -66.30743 | 34466 ft | 441 kts | 50° |
| 2026-04-21 00:10 | -8.48781 | -66.28419 | 34683 ft | 441 kts | 50° |
| 2026-04-21 00:10 | -8.46751 | -66.26095 | 34929 ft | 441 kts | 50° |
| 2026-04-21 00:10 | -8.44725 | -66.23776 | 35183 ft | 440 kts | 50° |
| 2026-04-21 00:10 | -8.42703 | -66.21463 | 35426 ft | 439 kts | 50° |
| 2026-04-21 00:11 | -8.40682 | -66.19149 | 35657 ft | 439 kts | 50° |
| 2026-04-21 00:11 | -8.38665 | -66.16843 | 35890 ft | 438 kts | 50° |
| 2026-04-21 00:11 | -8.36651 | -66.14539 | 36125 ft | 437 kts | 50° |
| 2026-04-21 00:11 | -8.34640 | -66.12239 | 36348 ft | 437 kts | 50° |
| 2026-04-21 00:12 | -8.32633 | -66.09944 | 36570 ft | 436 kts | 50° |
| 2026-04-21 00:12 | -8.30628 | -66.07652 | 36808 ft | 435 kts | 50° |
| 2026-04-21 00:12 | -8.28624 | -66.05362 | 36901 ft | 437 kts | 50° |
| 2026-04-21 00:13 | -8.24591 | -66.00751 | 36901 ft | 436 kts | 50° |
| 2026-04-21 00:13 | -8.20590 | -65.96182 | 36910 ft | 432 kts | 50° |
| 2026-04-21 00:14 | -8.16618 | -65.91646 | 36911 ft | 429 kts | 50° |
| 2026-04-21 00:14 | -8.12694 | -65.87167 | 36909 ft | 428 kts | 50° |
| 2026-04-21 00:15 | -8.08756 | -65.82671 | 36912 ft | 427 kts | 50° |
| 2026-04-21 00:15 | -8.04810 | -65.78169 | 36916 ft | 428 kts | 50° |
| 2026-04-21 00:16 | -8.00853 | -65.73656 | 36913 ft | 430 kts | 50° |
| 2026-04-21 00:16 | -7.96876 | -65.69121 | 36914 ft | 433 kts | 50° |
| 2026-04-21 00:17 | -7.92877 | -65.64563 | 36919 ft | 435 kts | 50° |
| 2026-04-21 00:17 | -7.88856 | -65.59981 | 36917 ft | 437 kts | 50° |
| 2026-04-21 00:18 | -7.84817 | -65.55380 | 36914 ft | 438 kts | 50° |
| 2026-04-21 00:18 | -7.80770 | -65.50772 | 36912 ft | 439 kts | 50° |
| 2026-04-21 00:19 | -7.76717 | -65.46157 | 36909 ft | 439 kts | 50° |
| 2026-04-21 00:19 | -7.72667 | -65.41548 | 36908 ft | 439 kts | 50° |
| 2026-04-21 00:20 | -7.68654 | -65.36982 | 36912 ft | 438 kts | 50° |
| 2026-04-21 00:20 | -7.64620 | -65.32394 | 36912 ft | 436 kts | 50° |
| 2026-04-21 00:21 | -7.60600 | -65.27822 | 36912 ft | 435 kts | 50° |
| 2026-04-21 00:21 | -7.56588 | -65.23261 | 36916 ft | 434 kts | 50° |
| 2026-04-21 00:22 | -7.52591 | -65.18709 | 36912 ft | 433 kts | 50° |
| 2026-04-21 00:22 | -7.48613 | -65.14164 | 36916 ft | 432 kts | 50° |
| 2026-04-21 00:23 | -7.44641 | -65.09625 | 36913 ft | 431 kts | 50° |
| 2026-04-21 00:23 | -7.40672 | -65.05091 | 36913 ft | 431 kts | 50° |
| 2026-04-21 00:24 | -7.36703 | -65.00560 | 36916 ft | 431 kts | 50° |
| 2026-04-21 00:24 | -7.32728 | -64.96023 | 36913 ft | 432 kts | 50° |
| 2026-04-21 00:25 | -7.28755 | -64.91490 | 36917 ft | 432 kts | 50° |
| 2026-04-21 00:25 | -7.24769 | -64.86943 | 36916 ft | 433 kts | 50° |
| 2026-04-21 00:26 | -7.20779 | -64.82394 | 36920 ft | 434 kts | 50° |
| 2026-04-21 00:26 | -7.16778 | -64.77832 | 36917 ft | 435 kts | 50° |
| 2026-04-21 00:27 | -7.12764 | -64.73258 | 36915 ft | 436 kts | 50° |
| 2026-04-21 00:27 | -7.08748 | -64.68683 | 36916 ft | 436 kts | 50° |
| 2026-04-21 00:28 | -7.04730 | -64.64106 | 36917 ft | 436 kts | 50° |
| 2026-04-21 00:28 | -7.00733 | -64.59555 | 36921 ft | 436 kts | 50° |
| 2026-04-21 00:29 | -6.96713 | -64.54979 | 36920 ft | 436 kts | 50° |
| 2026-04-21 00:29 | -6.93369 | -64.51174 | 36920 ft | 436 kts | 50° |
| 2026-04-21 00:30 | -6.89353 | -64.46603 | 36918 ft | 436 kts | 50° |
| 2026-04-21 00:30 | -6.85334 | -64.42032 | 36923 ft | 435 kts | 50° |
| 2026-04-21 00:31 | -6.81326 | -64.37474 | 36923 ft | 435 kts | 50° |
| 2026-04-21 00:31 | -6.77321 | -64.32920 | 36918 ft | 435 kts | 50° |
| 2026-04-21 00:32 | -6.73311 | -64.28361 | 36925 ft | 434 kts | 50° |
| 2026-04-21 00:32 | -6.69305 | -64.23809 | 36923 ft | 434 kts | 50° |
| 2026-04-21 00:33 | -6.65302 | -64.19258 | 36926 ft | 434 kts | 50° |
| 2026-04-21 00:33 | -6.61297 | -64.14704 | 36926 ft | 434 kts | 50° |
| 2026-04-21 00:34 | -6.57319 | -64.10181 | 36923 ft | 435 kts | 50° |
| 2026-04-21 00:34 | -6.53310 | -64.05625 | 36924 ft | 435 kts | 50° |
| 2026-04-21 00:35 | -6.49294 | -64.01060 | 36925 ft | 435 kts | 50° |
| 2026-04-21 00:35 | -6.45271 | -63.96490 | 36926 ft | 436 kts | 50° |
| 2026-04-21 00:36 | -6.41244 | -63.91927 | 36927 ft | 436 kts | 50° |
| 2026-04-21 00:36 | -6.37216 | -63.87362 | 36927 ft | 436 kts | 50° |
| 2026-04-21 00:37 | -6.33184 | -63.82793 | 36927 ft | 437 kts | 50° |
| 2026-04-21 00:37 | -6.29178 | -63.78256 | 36926 ft | 437 kts | 50° |
| 2026-04-21 00:38 | -6.25143 | -63.73689 | 36927 ft | 437 kts | 50° |
| 2026-04-21 00:38 | -6.21105 | -63.69119 | 36926 ft | 437 kts | 50° |
| 2026-04-21 00:39 | -6.17068 | -63.64549 | 36929 ft | 437 kts | 50° |
| 2026-04-21 00:39 | -6.13032 | -63.59980 | 36928 ft | 437 kts | 50° |
| 2026-04-21 00:40 | -6.08997 | -63.55414 | 36926 ft | 437 kts | 50° |
| 2026-04-21 00:40 | -6.04940 | -63.50858 | 36925 ft | 437 kts | 49° |
| 2026-04-21 00:41 | -6.00835 | -63.46340 | 36923 ft | 437 kts | 49° |
| 2026-04-21 00:41 | -5.96733 | -63.41830 | 36930 ft | 437 kts | 49° |
| 2026-04-21 00:42 | -5.92636 | -63.37314 | 36930 ft | 437 kts | 49° |
| 2026-04-21 00:42 | -5.88542 | -63.32798 | 36931 ft | 437 kts | 50° |
| 2026-04-21 00:43 | -5.84452 | -63.28286 | 36918 ft | 437 kts | 49° |
| 2026-04-21 00:43 | -5.80359 | -63.23773 | 36924 ft | 437 kts | 49° |
| 2026-04-21 00:44 | -5.76269 | -63.19263 | 36931 ft | 436 kts | 50° |
| 2026-04-21 00:44 | -5.72220 | -63.14779 | 36923 ft | 436 kts | 51° |
| 2026-04-21 00:45 | -5.66290 | -63.07868 | 36922 ft | 434 kts | 51° |
| 2026-04-21 00:45 | -5.62364 | -63.03258 | 36923 ft | 433 kts | 51° |
| 2026-04-21 00:46 | -5.58437 | -62.98668 | 36924 ft | 433 kts | 51° |
| 2026-04-21 00:46 | -5.54513 | -62.94094 | 36922 ft | 432 kts | 51° |
| 2026-04-21 00:47 | -5.50610 | -62.89549 | 36922 ft | 431 kts | 51° |
| 2026-04-21 00:47 | -5.46693 | -62.84988 | 36926 ft | 431 kts | 51° |
| 2026-04-21 00:48 | -5.42778 | -62.80431 | 36933 ft | 431 kts | 51° |
| 2026-04-21 00:48 | -5.38867 | -62.75879 | 36924 ft | 431 kts | 51° |
| 2026-04-21 00:49 | -5.34953 | -62.71325 | 36926 ft | 431 kts | 51° |
| 2026-04-21 00:49 | -5.31036 | -62.66768 | 36924 ft | 431 kts | 51° |
| 2026-04-21 00:50 | -5.27118 | -62.62210 | 36927 ft | 432 kts | 51° |
| 2026-04-21 00:50 | -5.23192 | -62.57644 | 36925 ft | 432 kts | 51° |
| 2026-04-21 00:51 | -5.19262 | -62.53076 | 36926 ft | 433 kts | 51° |
| 2026-04-21 00:51 | -5.15353 | -62.48531 | 36928 ft | 433 kts | 51° |
| 2026-04-21 00:52 | -5.11414 | -62.43954 | 36929 ft | 433 kts | 51° |
| 2026-04-21 00:52 | -5.07476 | -62.39378 | 36928 ft | 433 kts | 51° |
| 2026-04-21 00:53 | -5.03534 | -62.34799 | 36916 ft | 434 kts | 51° |
| 2026-04-21 00:53 | -4.99584 | -62.30210 | 36930 ft | 434 kts | 51° |
| 2026-04-21 00:54 | -4.95634 | -62.25624 | 36930 ft | 435 kts | 51° |
| 2026-04-21 00:54 | -4.91704 | -62.21061 | 36925 ft | 436 kts | 51° |
| 2026-04-21 00:55 | -4.87735 | -62.16454 | 36929 ft | 436 kts | 51° |
| 2026-04-21 00:55 | -4.83755 | -62.11835 | 36931 ft | 437 kts | 51° |
| 2026-04-21 00:56 | -4.79771 | -62.07212 | 36932 ft | 438 kts | 51° |
| 2026-04-21 00:56 | -4.75782 | -62.02584 | 36931 ft | 439 kts | 51° |
| 2026-04-21 00:57 | -4.71804 | -61.97971 | 36929 ft | 439 kts | 51° |
| 2026-04-21 00:57 | -4.67803 | -61.93330 | 36927 ft | 440 kts | 51° |
| 2026-04-21 00:58 | -4.63803 | -61.88693 | 36925 ft | 440 kts | 51° |
| 2026-04-21 00:58 | -4.61789 | -61.86357 | 36519 ft | 446 kts | 51° |
| 2026-04-21 00:58 | -4.59770 | -61.84017 | 36194 ft | 440 kts | 51° |
| 2026-04-21 00:59 | -4.57770 | -61.81700 | 35755 ft | 437 kts | 51° |
| 2026-04-21 00:59 | -4.55789 | -61.79405 | 35328 ft | 433 kts | 51° |
| 2026-04-21 00:59 | -4.53820 | -61.77125 | 34919 ft | 430 kts | 51° |
| 2026-04-21 00:59 | -4.51898 | -61.74898 | 34513 ft | 427 kts | 51° |
| 2026-04-21 01:00 | -4.49964 | -61.72657 | 34090 ft | 424 kts | 51° |
| 2026-04-21 01:00 | -4.48039 | -61.70426 | 33658 ft | 421 kts | 51° |
| 2026-04-21 01:00 | -4.46130 | -61.68215 | 33219 ft | 418 kts | 51° |
| 2026-04-21 01:00 | -4.44233 | -61.66018 | 32797 ft | 415 kts | 51° |
| 2026-04-21 01:01 | -4.42352 | -61.63839 | 32388 ft | 412 kts | 51° |
| 2026-04-21 01:01 | -4.40485 | -61.61677 | 31986 ft | 409 kts | 51° |
| 2026-04-21 01:01 | -4.38631 | -61.59529 | 31591 ft | 406 kts | 51° |
| 2026-04-21 01:01 | -4.36790 | -61.57399 | 31200 ft | 403 kts | 51° |
| 2026-04-21 01:02 | -4.34962 | -61.55282 | 30816 ft | 401 kts | 51° |
| 2026-04-21 01:02 | -4.33144 | -61.53176 | 30435 ft | 398 kts | 51° |
| 2026-04-21 01:02 | -4.31337 | -61.51085 | 30044 ft | 396 kts | 51° |
| 2026-04-21 01:02 | -4.29538 | -61.49002 | 29594 ft | 394 kts | 51° |
| 2026-04-21 01:03 | -4.27751 | -61.46933 | 29166 ft | 391 kts | 51° |
| 2026-04-21 01:03 | -4.25975 | -61.44877 | 28746 ft | 388 kts | 51° |
| 2026-04-21 01:03 | -4.24219 | -61.42846 | 28351 ft | 385 kts | 51° |
| 2026-04-21 01:03 | -4.22471 | -61.40823 | 27955 ft | 382 kts | 51° |
| 2026-04-21 01:04 | -4.20761 | -61.38844 | 27575 ft | 379 kts | 51° |
| 2026-04-21 01:04 | -4.19042 | -61.36856 | 27190 ft | 376 kts | 51° |
| 2026-04-21 01:04 | -4.17313 | -61.34855 | 26803 ft | 374 kts | 51° |
| 2026-04-21 01:04 | -4.15636 | -61.32915 | 26422 ft | 372 kts | 51° |
| 2026-04-21 01:05 | -4.13951 | -61.30965 | 26044 ft | 370 kts | 51° |
| 2026-04-21 01:05 | -4.12270 | -61.29020 | 25666 ft | 368 kts | 50° |
| 2026-04-21 01:05 | -4.10593 | -61.27080 | 25271 ft | 367 kts | 50° |
| 2026-04-21 01:05 | -4.08926 | -61.25152 | 24895 ft | 366 kts | 50° |
| 2026-04-21 01:06 | -4.07262 | -61.23228 | 24508 ft | 365 kts | 50° |
| 2026-04-21 01:06 | -4.05599 | -61.21304 | 24131 ft | 365 kts | 50° |
| 2026-04-21 01:06 | -4.03939 | -61.19385 | 23760 ft | 364 kts | 50° |
| 2026-04-21 01:06 | -4.02281 | -61.17467 | 23341 ft | 364 kts | 50° |
| 2026-04-21 01:07 | -4.00627 | -61.15556 | 22923 ft | 362 kts | 50° |
| 2026-04-21 01:07 | -3.98981 | -61.13653 | 22527 ft | 360 kts | 50° |
| 2026-04-21 01:07 | -3.97346 | -61.11762 | 22156 ft | 358 kts | 50° |
| 2026-04-21 01:07 | -3.95722 | -61.09885 | 21793 ft | 356 kts | 50° |
| 2026-04-21 01:08 | -3.94104 | -61.08014 | 21428 ft | 354 kts | 50° |
| 2026-04-21 01:08 | -3.92498 | -61.06159 | 21067 ft | 352 kts | 50° |
| 2026-04-21 01:08 | -3.90899 | -61.04311 | 20709 ft | 350 kts | 50° |
| 2026-04-21 01:08 | -3.89308 | -61.02471 | 20351 ft | 348 kts | 50° |
| 2026-04-21 01:09 | -3.87744 | -61.00665 | 19998 ft | 347 kts | 50° |
| 2026-04-21 01:09 | -3.86168 | -60.98843 | 19641 ft | 345 kts | 50° |
| 2026-04-21 01:09 | -3.84596 | -60.97026 | 19270 ft | 344 kts | 50° |
| 2026-04-21 01:09 | -3.83032 | -60.95220 | 18916 ft | 344 kts | 50° |
| 2026-04-21 01:10 | -3.81465 | -60.93409 | 18557 ft | 343 kts | 50° |
| 2026-04-21 01:10 | -3.79906 | -60.91607 | 18198 ft | 342 kts | 50° |
| 2026-04-21 01:10 | -3.78347 | -60.89806 | 17806 ft | 341 kts | 50° |
| 2026-04-21 01:10 | -3.76796 | -60.88013 | 17435 ft | 339 kts | 50° |
| 2026-04-21 01:11 | -3.75251 | -60.86228 | 17075 ft | 337 kts | 50° |
| 2026-04-21 01:11 | -3.73717 | -60.84456 | 16722 ft | 336 kts | 50° |
| 2026-04-21 01:11 | -3.72193 | -60.82698 | 16380 ft | 334 kts | 50° |
| 2026-04-21 01:11 | -3.70646 | -60.80976 | 16036 ft | 332 kts | 44° |
| 2026-04-21 01:12 | -3.68876 | -60.79493 | 15696 ft | 331 kts | 38° |
| 2026-04-21 01:12 | -3.67044 | -60.78150 | 15359 ft | 330 kts | 36° |
| 2026-04-21 01:12 | -3.65178 | -60.76820 | 15018 ft | 328 kts | 36° |
| 2026-04-21 01:12 | -3.63320 | -60.75487 | 14668 ft | 328 kts | 36° |
| 2026-04-21 01:13 | -3.61473 | -60.74147 | 14308 ft | 328 kts | 37° |
| 2026-04-21 01:13 | -3.59633 | -60.72797 | 13955 ft | 328 kts | 37° |
| 2026-04-21 01:13 | -3.57796 | -60.71438 | 13592 ft | 328 kts | 37° |
| 2026-04-21 01:13 | -3.55970 | -60.70081 | 13227 ft | 327 kts | 37° |
| 2026-04-21 01:14 | -3.54150 | -60.68726 | 12877 ft | 325 kts | 37° |
| 2026-04-21 01:14 | -3.52340 | -60.67376 | 12521 ft | 323 kts | 37° |
| 2026-04-21 01:14 | -3.50541 | -60.66034 | 12191 ft | 322 kts | 37° |
| 2026-04-21 01:14 | -3.48748 | -60.64697 | 11848 ft | 320 kts | 37° |
| 2026-04-21 01:15 | -3.46965 | -60.63365 | 11501 ft | 319 kts | 37° |
| 2026-04-21 01:15 | -3.45194 | -60.62043 | 11172 ft | 317 kts | 37° |
| 2026-04-21 01:15 | -3.43429 | -60.60726 | 10839 ft | 316 kts | 37° |
| 2026-04-21 01:15 | -3.41670 | -60.59413 | 10493 ft | 315 kts | 37° |
| 2026-04-21 01:16 | -3.39919 | -60.58107 | 10231 ft | 311 kts | 37° |
| 2026-04-21 01:16 | -3.38205 | -60.56828 | 10064 ft | 304 kts | 37° |
| 2026-04-21 01:16 | -3.37094 | -60.56000 | 9973 ft | 298 kts | 37° |
| 2026-04-21 01:16 | -3.35435 | -60.54761 | 9631 ft | 298 kts | 37° |
| 2026-04-21 01:17 | -3.33777 | -60.53522 | 9322 ft | 296 kts | 37° |
| 2026-04-21 01:17 | -3.32130 | -60.52292 | 9012 ft | 294 kts | 37° |
| 2026-04-21 01:17 | -3.30496 | -60.51071 | 8708 ft | 290 kts | 38° |
| 2026-04-21 01:17 | -3.28398 | -60.49505 | 8310 ft | 278 kts | 38° |
| 2026-04-21 01:18 | -3.26856 | -60.48354 | 8045 ft | 275 kts | 38° |
| 2026-04-21 01:18 | -3.25821 | -60.47582 | 7858 ft | 274 kts | 38° |
| 2026-04-21 01:18 | -3.24312 | -60.46459 | 7587 ft | 273 kts | 38° |
| 2026-04-21 01:18 | -3.22793 | -60.45327 | 7309 ft | 272 kts | 38° |
| 2026-04-21 01:19 | -3.21277 | -60.44198 | 7028 ft | 271 kts | 38° |
| 2026-04-21 01:19 | -3.19765 | -60.43072 | 6746 ft | 271 kts | 38° |
| 2026-04-21 01:19 | -3.18257 | -60.41949 | 6451 ft | 271 kts | 38° |
| 2026-04-21 01:19 | -3.16747 | -60.40824 | 6158 ft | 270 kts | 38° |
| 2026-04-21 01:20 | -3.15242 | -60.39702 | 5862 ft | 269 kts | 38° |
| 2026-04-21 01:20 | -3.13738 | -60.38582 | 5573 ft | 269 kts | 38° |
| 2026-04-21 01:20 | -3.12237 | -60.37465 | 5291 ft | 268 kts | 38° |
| 2026-04-21 01:20 | -3.10747 | -60.36355 | 5027 ft | 266 kts | 37° |
| 2026-04-21 01:21 | -3.09269 | -60.35253 | 4767 ft | 264 kts | 37° |
| 2026-04-21 01:21 | -3.07798 | -60.34157 | 4487 ft | 263 kts | 37° |
| 2026-04-21 01:21 | -3.06338 | -60.33069 | 4234 ft | 258 kts | 37° |
| 2026-04-21 01:21 | -3.04943 | -60.32017 | 4124 ft | 243 kts | 42° |
| 2026-04-21 01:22 | -3.04027 | -60.30688 | 3998 ft | 228 kts | 73° |
| 2026-04-21 01:22 | -3.03751 | -60.29173 | 3928 ft | 219 kts | 88° |
| 2026-04-21 01:22 | -3.03753 | -60.27661 | 3854 ft | 217 kts | 91° |
| 2026-04-21 01:22 | -3.03795 | -60.26163 | 3785 ft | 211 kts | 91° |
| 2026-04-21 01:23 | -3.03814 | -60.24734 | 3707 ft | 199 kts | 90° |
| 2026-04-21 01:23 | -3.03821 | -60.23373 | 3491 ft | 197 kts | 90° |
| 2026-04-21 01:23 | -3.03824 | -60.22007 | 3254 ft | 195 kts | 90° |
| 2026-04-21 01:23 | -3.03826 | -60.20654 | 3010 ft | 194 kts | 89° |
| 2026-04-21 01:24 | -3.03829 | -60.19308 | 2767 ft | 192 kts | 89° |
| 2026-04-21 01:24 | -3.03832 | -60.17980 | 2532 ft | 189 kts | 89° |
| 2026-04-21 01:24 | -3.03834 | -60.16672 | 2284 ft | 186 kts | 89° |
| 2026-04-21 01:24 | -3.03837 | -60.15410 | 2039 ft | 177 kts | 89° |
| 2026-04-21 01:25 | -3.03840 | -60.14214 | 1831 ft | 166 kts | 89° |
| 2026-04-21 01:25 | -3.03842 | -60.13105 | 1657 ft | 152 kts | 89° |
| 2026-04-21 01:25 | -3.03844 | -60.12087 | 1435 ft | 143 kts | 89° |
| 2026-04-21 01:25 | -3.03846 | -60.11100 | 1253 ft | 142 kts | 89° |
| 2026-04-21 01:26 | -3.03848 | -60.10104 | 1063 ft | 144 kts | 90° |
| 2026-04-21 01:26 | -3.03850 | -60.09104 | 879 ft | 144 kts | 90° |
| 2026-04-21 01:26 | -3.03849 | -60.08112 | 721 ft | 141 kts | 89° |
| 2026-04-21 01:26 | -3.03846 | -60.07138 | 534 ft | 140 kts | 90° |
| 2026-04-21 01:27 | -3.03852 | -60.06167 | 326 ft | 139 kts | 90° |
| 2026-04-21 01:27 | -3.03853 | -60.05269 | 266 ft | 115 kts | 90° |
| 2026-04-21 01:27 | -3.03857 | -60.04627 | 269 ft | 73 kts | 90° |
| 2026-04-21 01:27 | -3.03859 | -60.04187 | 268 ft | 58 kts | 90° |
| 2026-04-21 01:28 | -3.03861 | -60.03868 | 267 ft | 30 kts | 87° |
| 2026-04-21 01:28 | -3.03728 | -60.03781 | 268 ft | 26 kts | 327° |
| 2026-04-21 01:28 | -3.03661 | -60.03936 | 267 ft | 24 kts | 283° |
| 2026-04-21 01:28 | -3.03620 | -60.04078 | 267 ft | 19 kts | 284° |
| 2026-04-21 01:29 | -3.03585 | -60.04201 | 267 ft | 18 kts | 294° |
| 2026-04-21 01:29 | -3.03518 | -60.04304 | 267 ft | 17 kts | 313° |
| 2026-04-21 01:29 | -3.03421 | -60.04366 | 267 ft | 13 kts | 341° |
| 2026-04-21 01:29 | -3.03351 | -60.04391 | 267 ft | 9 kts | 323° |
| 2026-04-21 01:30 | -3.03337 | -60.04450 | 267 ft | 9 kts | 258° |
| 2026-04-21 01:30 | -3.03350 | -60.04512 | 267 ft | 9 kts | 259° |
| 2026-04-21 01:30 | -3.03355 | -60.04569 | 267 ft | 7 kts | 265° |
| 2026-04-21 01:30 | -3.03348 | -60.04614 | 267 ft | 7 kts | 317° |
| 2026-04-21 01:31 | -3.03303 | -60.04624 | 267 ft | 5 kts | 5° |
| 2026-04-21 01:31 | -3.03276 | -60.04623 | 267 ft | 2 kts | 1° |
| 2026-04-21 01:31 | -3.03273 | -60.04623 | 267 ft | 0 kts | 1° |
| 2026-04-21 01:31 | -3.03272 | -60.04623 | 267 ft | 0 kts | 1° |